Bowman, SC

1:53 AM EDT on August 01, 2014 (GMT -0400)
Orangeburg Municipal (KOGB) Elev 197 ft | 33.46 °N, 80.86 °W | Change Station

Current weather conditions updated 31 minutes ago

Overcast
Overcast
73 °F
Feels Like 73 °F
N
4
Wind Variable Wind from NE

Today is forecast to be Much Warmer than yesterday. Scattered thunderstorms.

Today
High -- | Low -- °F
--% Chance of Precip.
Yesterday
High -- | Low -- °F
Precip. -- in
6:35 AM 8:22 PM
Waxing Crescent, 24% visible
Pressure 30.04 in
Visibility 10.0 miles
Clouds Overcast 900 ft
Dew Point 69 °F
Humidity 87%
Rainfall 0.00 in
Snow Depth Not available.
UV 0 out of 12
Pollen 5.00 out of 12
PM2.5 Good
Flu Activity Not available.
SPECI KOGB 010522Z AUTO 04003KT 10SM OVC009 23/21 A3004 RMK AO2 CIG 007V011 T02280206

More Conditions Fewer Conditions

Pressure 30.04 in
Visibility 10.0 miles
Clouds Overcast 900 ft
Dew Point 69 °F
Humidity 87%
Rainfall 0.00 in
Snow Depth Not available.
UV 0 out of 12
Pollen 5.00 out of 12
PM2.5 Good
Flu Activity Not available.
SPECI KOGB 010522Z AUTO 04003KT 10SM OVC009 23/21 A3004 RMK AO2 CIG 007V011 T02280206

More Conditions Fewer Conditions

10-Day Weather Forecast

Almanac

Astronomy

Aug. 01, 2014 Rise Set
Actual Time 6:35 AM EDT 8:22 PM EDT
Civil Twilight 6:08 AM EDT 8:49 PM EDT
Nautical Twilight 5:35 AM EDT 9:21 PM EDT
Astronomical Twilight 5:00 AM EDT 9:56 PM EDT
Moon 11:39 AM EDT 11:25 PM EDT
Length of Visible Light 14h 40m
Length of Day
13h 46m
Tomorrow will be 1m 33s shorter.
Waxing Crescent, 24% of the Moon is Illuminated
Today
Waxing Crescent
Aug 3
First Quarter
Aug 10
Full
Aug 17
Last Quarter
Aug 25
New

Today's Extremes

State Highs State Lows

Community

WunderPhotos

Upload Photos

1,739,520 photos uploaded!

Nearby

Air Quality

  Air Quality AQ Index Pollutant
Yesterday Good
PM2.5
Yesterday Good
OZONE
Current Good
PM2.5
Friday Good
OZONE

Snow Depth

Station Depth Elevation
No new snow has been reported.

Earthquake Activity

City Distance Mag. Time & Date
No recent earthquake activity has been reported nearby.
Minimum magnitude displayed is 2.5.

Coastal Water Temperatures

Place Temperature
No Stations Reporting

Nearby Weather Stations

Station Location Temp. Dew Point Humidity Wind Precip. Elev Updated Type
Santee State Park-K9YS, Santee, SC 72.2 °F 71 °F 97% NNE  at  0.0 mph 0.00 in / hr 135 ft 12:31 AM EDT Rapid Fire
KQ4WH, Skunkworks, Smoaks, SC 70.6 °F 69 °F 96% ENE  at  0.0 mph 0.00 in / hr 108 ft 1:53 AM EDT Rapid Fire
Dingle Pond, Summerton, SC 72.1 °F 71 °F 97% South  at  0.0 mph 0.00 in / hr 95 ft 1:53 AM EDT Rapid Fire
RAWS SANTEE NWR SC, Santee, SC 73 °F 71 °F 95% East  at  2 mph 0.00 in / hr 78 ft 12:44 AM EDT MADIS
North Orangeburg, Orangeburg, SC 69.8 °F 68 °F 96% East  at  0.0 mph 0.00 in / hr 331 ft 1:52 AM EDT Rapid Fire

Show More Stations Show Fewer Stations